Overview Statistics Trail Chart Weather Telemetry Raw packets
 

This is the latest recevied weather packets stored in our database for station/object SV1RVP-13. If no packets are shown the sender has not sent any weather packets the latest 10 day(s).

<< 50 51 52 53 54 55 56 >>
Time Temp. Humidity Pressure Rain* Wind** Luminosity Snow
1787914706 33.33° C 49% 1013.6 hPa 0 mm - - -
1787914116 32.78° C 50% 1013.6 hPa 0 mm - - -
1787913517 32.78° C 53% 1013.6 hPa 0 mm - - -
1787912921 33.33° C 54% 1013.6 hPa 0 mm - - -
1787912312 33.33° C 54% 1013.5 hPa 0 mm - - -
1787911713 34.44° C 47% 1013.6 hPa 0 mm - - -
1787911124 34.44° C 46% 1013.6 hPa 0 mm - - -
1787910516 34.44° C 46% 1013.8 hPa 0 mm - - -
1787909918 34.44° C 46% 1013.8 hPa 0 mm - - -
1787909311 33.89° C 47% 1013.9 hPa 0 mm - - -
1787908709 34.44° C 46% 1013.9 hPa 0 mm - - -
1787908110 33.89° C 46% 1014 hPa 0 mm - - -
1787907521 33.89° C 46% 1014.2 hPa 0 mm - - -
1787906910 33.89° C 46% 1014.1 hPa 0 mm - - -
1787906308 33.33° C 48% 1014.2 hPa 0 mm - - -
1787905732 33.33° C 48% 1014.2 hPa 0 mm - - -
1787905121 32.78° C 49% 1014.2 hPa 0 mm - - -
1787904509 32.22° C 50% 1014.3 hPa 0 mm - - -
1787903917 32.78° C 50% 1014.2 hPa 0 mm - - -
1787903336 32.78° C 52% 1014.1 hPa 0 mm - - -
1787902724 32.78° C 54% 1013.9 hPa 0 mm - - -
1787902126 32.78° C 53% 1013.9 hPa 0 mm - - -
1787901517 32.22° C 53% 1013.8 hPa 0 mm - - -
1787900921 31.67° C 53% 1013.8 hPa 0 mm - - -
1787900312 31.67° C 53% 1013.7 hPa 0 mm - - -

* Rain since midnight (hover to see other rain measurements)
** Current wind speed in m/s (hover to see current wind gust speed)